Bannister, Michigan
Current Conditions -  °F | °C
As of 3:14 AM on Monday 24 Nov 2014 (Local Time) from KRNP Reporting Station
Light Rain Light Rain  
Wind Chill: 53°   Ceiling: 3300
Heat Index: 53°   Visibility: 10mi
Dew Point: 52°   Wind: 9mph
Humidity: 98%   Direction: 170°S
Pressure: 29"   Gusts: 18mph
Location:  43.13°N, 84.42°W
Report Text: KRNP 240814Z AUTO 17008G16KT 10SM -RA SCT010 BKN033 OVC060 12/11 A2900 RMK AO2 T01160113
Loading
Personal Weather Stations






























Interactive Weather Map New forecast layout! Learn more

10-Day Weather Forecast

Advertisements
Track Severe Weather on mobile